• Join FlightAware (Why Join?)
  • Login
  • US Flag 
10:21AM EST


 

Airport Tracker/Info


-or-


 

Live Flight TrackerFlight Track Log ✈ N373LD ✈ 16-Sep-2013 ✈ KCOD - KMLS

Flight Track Log - Related Links

Times and Time Zones

All times are in EDT time to prevent confusion due to time zone crossing. See the N373LD flight status page for this flight to view local times or setup timezone preferences in your user account.

Time Position Orientation Groundspeed Altitude Reporting Facility
EDT Latitude Longitude Course Direction KTS MPH feet Rate Location/Type
08:34AM 44.6053 -108.8928 48° Northeast 155 178 9,400  Level Salt Lake Center
08:35AM 44.6361 -108.8439 48° Northeast 159 183 10,800 1,388 Climbing Salt Lake Center
08:36AM 44.6689 -108.7928 48° Northeast 168 193 12,200 1,339 Climbing Salt Lake Center
08:37AM 44.7022 -108.7403 48° Northeast 174 200 13,500 1,438 Climbing Salt Lake Center
08:38AM 44.7439 -108.6744 48° Northeast 181 208 15,100 1,488 Climbing Salt Lake Center
08:39AM 44.7792 -108.6183 48° Northeast 189 217 16,500 1,289 Climbing Salt Lake Center
08:40AM 44.8156 -108.5619 48° Northeast 193 222 17,700 1,041 Climbing Salt Lake Center
08:41AM 44.8536 -108.5017 48° Northeast 201 231 18,600 645 Climbing Salt Lake Center
08:42AM 44.8961 -108.4342 48° Northeast 220 253 19,000 198 Climbing Salt Lake Center
08:43AM 44.9433 -108.3586 49° Northeast 246 283 19,000  Level Salt Lake Center
08:44AM 44.9928 -108.2808 48° Northeast 261 300 19,000  Level Salt Lake Center
08:45AM 45.0408 -108.2036 49° Northeast 261 300 19,000  Level Salt Lake Center
08:46AM 45.0861 -108.1289 49° Northeast 256 295 19,000  Level Salt Lake Center
08:47AM 45.1317 -108.0525 50° Northeast 257 296 19,000  Level Salt Lake Center
08:48AM 45.1822 -107.9728 48° Northeast 255 293 19,000  Level Salt Lake Center
08:49AM 45.2283 -107.8983 49° Northeast 254 292 19,000  Level Salt Lake Center
08:50AM 45.2739 -107.8244 49° Northeast 252 290 19,000  Level Salt Lake Center
08:51AM 45.3192 -107.7489 50° Northeast 254 292 19,000  Level Salt Lake Center
08:52AM 45.3697 -107.6675 49° Northeast 256 295 19,000  Level Salt Lake Center
08:53AM 45.4158 -107.5919 49° Northeast 256 295 19,000  Level Salt Lake Center
08:54AM 45.4608 -107.5169 49° Northeast 260 299 19,000  Level Salt Lake Center
08:55AM 45.5081 -107.4406 49° Northeast 259 298 19,000  Level Salt Lake Center
08:56AM 45.5553 -107.3631 49° Northeast 259 298 19,000  Level Salt Lake Center
08:57AM 45.6022 -107.2853 49° Northeast 260 299 19,000  Level Salt Lake Center
08:58AM 45.6492 -107.2075 49° Northeast 259 298 19,000  Level Salt Lake Center
08:59AM 45.6961 -107.1294 49° Northeast 258 297 19,000  Level Salt Lake Center
09:00AM 45.7431 -107.0517 49° Northeast 258 297 19,000  Level Salt Lake Center
09:01AM 45.7889 -106.9736 50° Northeast 258 297 19,000  Level Salt Lake Center
09:02AM 45.8347 -106.8972 49° Northeast 255 293 19,000  Level Salt Lake Center
09:03AM 45.8803 -106.8186 50° Northeast 256 295 19,000  Level Salt Lake Center
09:04AM 45.9356 -106.7264 49° Northeast 255 293 19,000  Level Salt Lake Center
09:05AM 45.9822 -106.6489 49° Northeast 256 295 19,000  Level Salt Lake Center
09:06AM 46.0289 -106.5692 50° Northeast 259 298 19,000 -298 Level Salt Lake Center
09:07AM 46.0753 -106.4911 49° Northeast 258 297 18,400 -590 Descending Salt Lake Center
09:09AM 46.1331 -106.3837 49° Northeast  Level FlightAware Approximate
09:16AM 46.4167 -105.8833 54° Northeast  Level FlightAware Approximate
09:17AM 46.4280 -105.8863 54° Northeast  Level Estimated
09:18AM 46.4280 -105.8863 54° Northeast  Level Estimated
09:19AM 46.4280 -105.8863 54° Northeast  Level Estimated
09:20AM 46.4280 -105.8863 54° Northeast  Level Estimated
09:21AM 46.4280 -105.8863 54° Northeast  Level Estimated
09:22AM 46.4280 -105.8863 54° Northeast  Level Estimated
09:23AM 46.4280 -105.8863 54° Northeast  Level Estimated
09:24AM 46.4280 -105.8863 54° Northeast  Level Estimated
09:25AM 46.4280 -105.8863 54° Northeast  Level Estimated
09:26AM 46.4280 -105.8863 54° Northeast  Level Estimated
09:27AM 46.4280 -105.8863 54° Northeast  Level Estimated
09:28AM 46.4280 -105.8863 54° Northeast  Level Estimated
09:29AM 46.4280 -105.8863 54° Northeast  Level Estimated
09:30AM 46.4280 -105.8863 54° Northeast  Level Estimated
09:31AM 46.4280 -105.8863 54° Northeast  Level Estimated
09:32AM 46.4280 -105.8863 54° Northeast  Level Estimated